Terminal Aerodrome Forecast
Issued by NWS Atlanta, GA

Home | Current Version | Previous Version | Text Only | Print | Product List | Glossary On
Versions: 1 2 3 4 5 6 7 8 9 10 11 12 13 14 15 16 17
000
FTUS42 KFFC 251731
TAFCSG
TAF
KCSG 251731Z 2518/2618 15011KT P6SM VCSH SCT035 BKN080
      TEMPO 2518/2522 3SM TSRA BR BKN025CB
     FM260100 12007KT P6SM VCSH SCT025 BKN045
     FM260600 13004KT P6SM BKN015
     FM260800 15006KT P6SM BKN009
     FM261400 14005KT P6SM BKN015=

USA.gov is the U.S. government's official web portal to all federal, state and local government web resources and services.